createdAt,value
2023-01-22T00:01:26.949Z,-0.38
2023-01-22T00:03:59.641Z,-0.37
2023-01-22T00:06:32.512Z,-0.37
2023-01-22T00:09:05.367Z,-0.44
2023-01-22T00:11:38.270Z,-0.47
2023-01-22T00:14:11.374Z,-0.45
2023-01-22T00:16:44.509Z,-0.43
2023-01-22T00:19:17.369Z,-0.41
2023-01-22T00:21:49.906Z,-0.41
2023-01-22T00:24:22.836Z,-0.45
2023-01-22T00:26:55.877Z,-0.43
2023-01-22T00:29:28.507Z,-0.42
2023-01-22T00:32:01.477Z,-0.40
2023-01-22T00:34:35.595Z,-0.36
2023-01-22T00:37:08.241Z,-0.36
2023-01-22T00:39:41.561Z,-0.35
2023-01-22T00:42:14.433Z,-0.40
2023-01-22T00:44:48.278Z,-0.42
2023-01-22T00:47:22.207Z,-0.41
2023-01-22T00:49:54.618Z,-0.40
2023-01-22T00:52:28.508Z,-0.41
2023-01-22T00:55:01.172Z,-0.40
2023-01-22T00:57:33.767Z,-0.39
2023-01-22T01:00:07.524Z,-0.37
2023-01-22T01:03:02.036Z,-0.37
2023-01-22T01:05:38.827Z,-0.40
2023-01-22T01:08:11.437Z,-0.41
2023-01-22T01:10:45.296Z,-0.43
2023-01-22T01:13:18.468Z,-0.43
2023-01-22T01:15:51.786Z,-0.42
2023-01-22T01:18:44.575Z,-0.40
2023-01-22T01:21:19.849Z,-0.39
2023-01-22T01:23:58.586Z,-0.41
2023-01-22T01:26:34.242Z,-0.42
2023-01-22T01:29:10.691Z,-0.47
2023-01-22T01:31:45.057Z,-0.48
2023-01-22T01:34:17.921Z,-0.48
2023-01-22T01:36:50.692Z,-0.55
2023-01-22T01:39:23.989Z,-0.58
2023-01-22T01:41:56.416Z,-0.55
2023-01-22T01:44:32.312Z,-0.48
2023-01-22T01:47:13.056Z,-0.49
2023-01-22T01:49:50.018Z,-0.49
2023-01-22T01:52:22.968Z,-0.50
2023-01-22T01:55:00.150Z,-0.46
2023-01-22T01:57:35.342Z,-0.44
2023-01-22T02:00:14.425Z,-0.48
2023-01-22T02:02:47.965Z,-0.52
2023-01-22T02:05:21.757Z,-0.53
2023-01-22T02:07:54.498Z,-0.54
2023-01-22T02:10:27.783Z,-0.54
2023-01-22T02:13:08.012Z,-0.50
2023-01-22T02:15:42.192Z,-0.51
2023-01-22T02:18:15.093Z,-0.51
2023-01-22T02:20:57.509Z,-0.50
2023-01-22T02:23:33.052Z,-0.49
2023-01-22T02:26:08.361Z,-0.48
2023-01-22T02:28:43.836Z,-0.47
2023-01-22T02:31:16.944Z,-0.48
2023-01-22T02:33:49.523Z,-0.48
2023-01-22T02:36:23.018Z,-0.48
2023-01-22T02:38:56.138Z,-0.49
2023-01-22T02:41:29.180Z,-0.49
2023-01-22T02:44:01.742Z,-0.50
2023-01-22T02:46:34.481Z,-0.51
2023-01-22T02:49:07.504Z,-0.56
2023-01-22T02:51:40.598Z,-0.57
2023-01-22T02:54:13.419Z,-0.54
2023-01-22T02:56:46.357Z,-0.56
2023-01-22T02:59:18.942Z,-0.57
2023-01-22T03:01:52.527Z,-0.66
2023-01-22T03:04:27.724Z,-0.59
2023-01-22T03:07:00.205Z,-0.62
2023-01-22T03:09:33.399Z,-0.59
2023-01-22T03:12:07.856Z,-0.68
2023-01-22T03:14:58.340Z,-0.64
2023-01-22T03:17:47.763Z,-0.59
2023-01-22T03:20:38.250Z,-0.64
2023-01-22T03:23:11.196Z,-0.63
2023-01-22T03:25:43.681Z,-0.62
2023-01-22T03:28:19.686Z,-0.59
2023-01-22T03:30:59.120Z,-0.63
2023-01-22T03:33:31.874Z,-0.63
2023-01-22T03:36:10.493Z,-0.64
2023-01-22T03:38:46.094Z,-0.64
2023-01-22T03:41:21.891Z,-0.67
2023-01-22T03:43:54.533Z,-0.66
2023-01-22T03:46:32.223Z,-0.66
2023-01-22T03:49:04.819Z,-0.68
2023-01-22T03:51:38.381Z,-0.68
2023-01-22T03:54:12.129Z,-0.69
2023-01-22T03:56:45.304Z,-0.69
2023-01-22T03:59:29.272Z,-0.70
2023-01-22T04:02:02.146Z,-0.71
2023-01-22T04:04:35.144Z,-0.74
2023-01-22T04:07:08.092Z,-0.71
2023-01-22T04:09:40.553Z,-0.70
2023-01-22T04:12:13.852Z,-0.68
2023-01-22T04:14:48.036Z,-0.68
2023-01-22T04:17:20.875Z,-0.70
2023-01-22T04:20:07.614Z,-0.73
2023-01-22T04:23:03.413Z,-0.71
2023-01-22T04:25:36.077Z,-0.70
2023-01-22T04:28:09.032Z,-0.77
2023-01-22T04:30:42.279Z,-0.80
2023-01-22T04:33:31.567Z,-0.78
2023-01-22T04:36:13.433Z,-0.78
2023-01-22T04:38:46.172Z,-0.82
2023-01-22T04:41:18.853Z,-0.82
2023-01-22T04:43:52.473Z,-0.89
2023-01-22T04:46:28.134Z,-0.90
2023-01-22T04:49:00.893Z,-0.86
2023-01-22T04:51:33.456Z,-0.90
2023-01-22T04:54:06.022Z,-0.89
2023-01-22T04:56:39.102Z,-0.84
2023-01-22T04:59:11.934Z,-0.81
2023-01-22T05:01:47.744Z,-0.79
2023-01-22T05:04:22.096Z,-0.79
2023-01-22T05:06:55.690Z,-0.81
2023-01-22T05:09:29.410Z,-0.80
2023-01-22T05:12:05.493Z,-0.79
2023-01-22T05:14:44.598Z,-0.77
2023-01-22T05:17:17.411Z,-0.76
2023-01-22T05:19:49.983Z,-0.80
2023-01-22T05:22:26.132Z,-0.84
2023-01-22T05:24:59.293Z,-0.80
2023-01-22T05:27:33.004Z,-0.78
2023-01-22T05:30:13.438Z,-0.79
2023-01-22T05:33:12.534Z,-0.80
2023-01-22T05:35:45.646Z,-0.77
2023-01-22T05:38:19.363Z,-0.75
2023-01-22T05:40:51.901Z,-0.74
2023-01-22T05:43:24.906Z,-0.73
2023-01-22T05:46:06.269Z,-0.74
2023-01-22T05:48:47.733Z,-0.73
2023-01-22T05:51:24.655Z,-0.75
2023-01-22T05:53:56.554Z,-0.73
2023-01-22T05:56:33.538Z,-0.75
2023-01-22T05:59:06.343Z,-0.73
2023-01-22T06:01:39.102Z,-0.71
2023-01-22T06:04:12.055Z,-0.71
2023-01-22T06:06:44.673Z,-0.68
2023-01-22T06:09:17.223Z,-0.71
2023-01-22T06:11:53.976Z,-0.74
2023-01-22T06:14:26.832Z,-0.76
2023-01-22T06:17:02.533Z,-0.75
2023-01-22T06:19:43.815Z,-0.75
2023-01-22T06:22:16.741Z,-0.74
2023-01-22T06:24:53.649Z,-0.73
2023-01-22T06:27:27.860Z,-0.75
2023-01-22T06:30:05.751Z,-0.71
2023-01-22T06:32:37.056Z,-0.70
2023-01-22T06:35:10.704Z,-0.73
2023-01-22T06:37:43.776Z,-0.70
2023-01-22T06:40:17.891Z,-0.68
2023-01-22T06:42:51.960Z,-0.67
2023-01-22T06:45:24.706Z,-0.65
2023-01-22T06:47:59.423Z,-0.64
2023-01-22T06:50:31.979Z,-0.67
2023-01-22T06:53:05.470Z,-0.69
2023-01-22T06:55:38.247Z,-0.67
2023-01-22T06:58:10.973Z,-0.66
2023-01-22T07:00:43.258Z,-0.62
2023-01-22T07:03:16.946Z,-0.60
2023-01-22T07:05:47.671Z,-0.58
2023-01-22T07:08:20.344Z,-0.63
2023-01-22T07:10:52.834Z,-0.67
2023-01-22T07:13:25.719Z,-0.70
2023-01-22T07:15:58.696Z,-0.68
2023-01-22T07:18:31.466Z,-0.68
2023-01-22T07:21:06.682Z,-0.66
2023-01-22T07:23:39.406Z,-0.62
2023-01-22T07:26:12.261Z,-0.63
2023-01-22T07:28:45.132Z,-0.59
2023-01-22T07:31:19.526Z,-0.58
2023-01-22T07:33:54.383Z,-0.58
2023-01-22T07:36:27.106Z,-0.55
2023-01-22T07:39:00.010Z,-0.54
2023-01-22T07:41:32.669Z,-0.60
2023-01-22T07:44:07.986Z,-0.54
2023-01-22T07:46:42.579Z,-0.50
2023-01-22T07:49:15.834Z,-0.60
2023-01-22T07:51:48.584Z,-0.55
2023-01-22T07:54:22.407Z,-0.45
2023-01-22T07:56:55.174Z,-0.42
2023-01-22T07:59:28.495Z,-0.42
2023-01-22T08:02:03.350Z,-0.46
2023-01-22T08:04:36.133Z,-0.36
2023-01-22T08:07:09.134Z,-0.38
2023-01-22T08:09:42.060Z,-0.38
2023-01-22T08:12:14.787Z,-0.35
2023-01-22T08:14:47.280Z,-0.25
2023-01-22T08:17:19.992Z,-0.21
2023-01-22T08:19:53.908Z,-0.18
2023-01-22T08:22:26.861Z,-0.15
2023-01-22T08:24:59.664Z,-0.11
2023-01-22T08:27:35.403Z,-0.06
2023-01-22T08:30:12.837Z,0.01
2023-01-22T08:32:47.473Z,0.07
2023-01-22T08:35:20.359Z,0.07
2023-01-22T08:37:53.057Z,0.16
2023-01-22T08:40:25.809Z,0.19
2023-01-22T08:42:58.921Z,0.27
2023-01-22T08:45:31.874Z,0.31
2023-01-22T08:48:04.682Z,0.29
2023-01-22T08:50:37.648Z,0.24
2023-01-22T08:53:10.520Z,0.33
2023-01-22T08:55:43.261Z,0.41
2023-01-22T08:58:15.939Z,0.42
2023-01-22T09:00:49.130Z,0.44
2023-01-22T09:03:21.894Z,0.47
2023-01-22T09:05:54.416Z,0.50
2023-01-22T09:08:26.952Z,0.53
2023-01-22T09:10:59.935Z,0.59
2023-01-22T09:13:32.575Z,0.56
2023-01-22T09:16:06.551Z,0.54
2023-01-22T09:18:39.353Z,0.47
2023-01-22T09:21:12.614Z,0.50
2023-01-22T09:23:46.223Z,0.52
2023-01-22T09:26:16.985Z,0.47
2023-01-22T09:28:49.644Z,0.43
2023-01-22T09:31:22.618Z,0.46
2023-01-22T09:33:56.177Z,0.48
2023-01-22T09:36:28.979Z,0.57
2023-01-22T09:39:01.840Z,0.59
2023-01-22T09:41:38.648Z,0.68
2023-01-22T09:44:18.426Z,0.68
2023-01-22T09:46:54.164Z,0.66
2023-01-22T09:49:31.430Z,0.66
2023-01-22T09:52:05.462Z,0.69
2023-01-22T09:54:38.320Z,0.76
2023-01-22T09:57:30.825Z,0.79
2023-01-22T10:00:05.233Z,0.85
2023-01-22T10:02:46.782Z,0.89
2023-01-22T10:05:25.511Z,0.92
2023-01-22T10:08:06.618Z,0.90
2023-01-22T10:10:39.921Z,0.94
2023-01-22T10:13:18.423Z,0.90
2023-01-22T10:15:51.892Z,0.88
2023-01-22T10:18:35.584Z,0.93
2023-01-22T10:21:15.568Z,0.96
2023-01-22T10:23:50.633Z,0.95
2023-01-22T10:26:28.201Z,0.94
2023-01-22T10:29:05.753Z,0.96
2023-01-22T10:31:41.205Z,0.96
2023-01-22T10:34:22.114Z,0.97
2023-01-22T10:36:56.084Z,0.93
2023-01-22T10:39:29.038Z,0.97
2023-01-22T10:42:06.015Z,1.00
2023-01-22T10:44:40.615Z,1.03
2023-01-22T10:47:21.051Z,1.08
2023-01-22T10:50:05.893Z,1.07
2023-01-22T10:52:43.049Z,1.09
2023-01-22T10:55:25.413Z,1.05
2023-01-22T10:58:03.119Z,1.12
2023-01-22T11:00:51.210Z,1.10
2023-01-22T11:03:30.323Z,1.10
2023-01-22T11:06:06.501Z,1.08
2023-01-22T11:09:02.829Z,1.10
2023-01-22T11:11:40.904Z,1.05
2023-01-22T11:14:22.153Z,1.04
2023-01-22T11:16:58.543Z,1.06
2023-01-22T11:19:41.613Z,1.06
2023-01-22T11:22:28.333Z,1.08
2023-01-22T11:25:01.387Z,1.11
2023-01-22T11:28:01.232Z,1.17
2023-01-22T11:30:59.406Z,1.17
2023-01-22T11:34:06.364Z,1.19
2023-01-22T11:36:44.314Z,1.21
2023-01-22T11:39:33.464Z,1.23
2023-01-22T11:42:19.781Z,1.18
2023-01-22T11:45:06.935Z,1.22
2023-01-22T11:48:21.422Z,1.20
2023-01-22T11:51:00.936Z,1.20
2023-01-22T11:53:59.210Z,1.24
2023-01-22T11:56:49.454Z,1.21
2023-01-22T11:59:33.123Z,1.18
2023-01-22T12:02:32.546Z,1.20
2023-01-22T12:05:15.334Z,1.18
2023-01-22T12:08:02.505Z,1.20
2023-01-22T12:11:05.817Z,1.25
2023-01-22T12:14:03.224Z,1.27
2023-01-22T12:16:45.455Z,1.26
2023-01-22T12:19:38.507Z,1.26
2023-01-22T12:22:31.339Z,1.21
2023-01-22T12:25:15.226Z,1.19
2023-01-22T12:27:53.933Z,1.19
2023-01-22T12:30:31.263Z,1.17
2023-01-22T12:33:08.985Z,1.20
2023-01-22T12:35:43.516Z,1.27
2023-01-22T12:38:32.343Z,1.26
2023-01-22T12:41:20.043Z,1.28
2023-01-22T12:43:55.946Z,1.30
2023-01-22T12:46:50.423Z,1.31
2023-01-22T12:49:23.215Z,1.32
2023-01-22T12:51:57.394Z,1.32
2023-01-22T12:54:36.806Z,1.33
2023-01-22T12:57:38.525Z,1.33
2023-01-22T13:00:31.185Z,1.31
2023-01-22T13:03:04.994Z,1.25
2023-01-22T13:05:47.533Z,1.24
2023-01-22T13:08:37.540Z,1.24
2023-01-22T13:11:15.593Z,1.23
2023-01-22T13:13:55.164Z,1.23
2023-01-22T13:16:41.336Z,1.17
2023-01-22T13:19:25.405Z,1.14
2023-01-22T13:21:59.710Z,1.19
2023-01-22T13:24:32.955Z,1.10
2023-01-22T13:27:07.129Z,1.10
2023-01-22T13:29:42.442Z,1.06
2023-01-22T13:32:23.670Z,1.04
2023-01-22T13:35:05.632Z,1.01
2023-01-22T13:37:39.221Z,0.97
2023-01-22T13:40:29.268Z,0.99
2023-01-22T13:43:03.248Z,1.01
2023-01-22T13:45:37.117Z,1.02
2023-01-22T13:48:16.281Z,1.02
2023-01-22T13:50:56.602Z,1.06
2023-01-22T13:53:33.224Z,1.08
2023-01-22T13:56:06.744Z,1.07
2023-01-22T13:58:48.384Z,1.08
2023-01-22T14:01:33.472Z,1.05
2023-01-22T14:04:24.955Z,1.05
2023-01-22T14:06:58.184Z,1.04
2023-01-22T14:09:33.515Z,1.05
2023-01-22T14:12:19.862Z,1.03
2023-01-22T14:14:54.628Z,1.04
2023-01-22T14:17:30.971Z,1.03
2023-01-22T14:20:06.125Z,1.00
2023-01-22T14:22:39.313Z,1.01
2023-01-22T14:25:13.477Z,1.03
2023-01-22T14:27:49.358Z,1.00
2023-01-22T14:30:23.183Z,0.97
2023-01-22T14:32:55.770Z,0.97
2023-01-22T14:35:30.342Z,0.94
2023-01-22T14:38:03.230Z,0.91
2023-01-22T14:40:36.204Z,0.91
2023-01-22T14:43:09.656Z,0.89
2023-01-22T14:45:43.004Z,0.89
2023-01-22T14:48:18.953Z,0.87
2023-01-22T14:50:52.710Z,0.85
2023-01-22T14:53:26.068Z,0.83
2023-01-22T14:56:01.732Z,0.83
2023-01-22T14:58:35.133Z,0.81
2023-01-22T15:01:18.370Z,0.81
2023-01-22T15:03:55.596Z,0.80
2023-01-22T15:06:29.687Z,0.78
2023-01-22T15:09:02.394Z,0.81
2023-01-22T15:11:35.184Z,0.79
2023-01-22T15:14:08.483Z,0.84
2023-01-22T15:16:41.379Z,0.86
2023-01-22T15:19:14.433Z,0.85
2023-01-22T15:21:47.208Z,0.84
2023-01-22T15:24:20.155Z,0.85
2023-01-22T15:26:52.857Z,0.84
2023-01-22T15:29:25.824Z,0.88
2023-01-22T15:31:58.735Z,0.88
2023-01-22T15:34:32.209Z,0.86
2023-01-22T15:37:05.343Z,0.84
2023-01-22T15:39:39.944Z,0.85
2023-01-22T15:42:12.477Z,0.86
2023-01-22T15:44:45.534Z,0.82
2023-01-22T15:47:18.304Z,0.78
2023-01-22T15:49:51.686Z,0.80
2023-01-22T15:52:24.877Z,0.84
2023-01-22T15:54:58.588Z,0.84
2023-01-22T15:57:32.675Z,0.83
2023-01-22T16:00:06.759Z,0.86
2023-01-22T16:02:45.339Z,0.88
2023-01-22T16:05:20.573Z,0.89
2023-01-22T16:07:54.645Z,0.90
2023-01-22T16:10:30.177Z,0.91
2023-01-22T16:13:03.045Z,0.92
2023-01-22T16:15:35.714Z,0.92
2023-01-22T16:18:08.555Z,0.90
2023-01-22T16:20:41.215Z,0.90
2023-01-22T16:23:13.703Z,0.88
2023-01-22T16:25:46.196Z,0.90
2023-01-22T16:28:26.625Z,0.93
2023-01-22T16:31:08.237Z,0.95
2023-01-22T16:33:44.118Z,0.94
2023-01-22T16:36:19.484Z,0.94
2023-01-22T16:38:52.381Z,0.95
2023-01-22T16:41:28.550Z,0.99
2023-01-22T16:44:03.694Z,0.99
2023-01-22T16:46:37.320Z,0.98
2023-01-22T16:49:14.948Z,0.96
2023-01-22T16:51:49.779Z,0.95
2023-01-22T16:54:28.180Z,0.96
2023-01-22T16:57:02.086Z,0.95
2023-01-22T16:59:36.939Z,0.96
2023-01-22T17:02:16.508Z,0.96
2023-01-22T17:04:49.224Z,0.98
2023-01-22T17:07:33.561Z,0.99
2023-01-22T17:10:11.143Z,1.00
2023-01-22T17:12:47.726Z,1.01
2023-01-22T17:15:29.321Z,1.00
2023-01-22T17:18:05.323Z,0.98
2023-01-22T17:20:53.791Z,0.98
2023-01-22T17:23:38.343Z,0.99
2023-01-22T17:26:22.661Z,1.00
2023-01-22T17:28:59.803Z,1.02
2023-01-22T17:31:39.037Z,1.03
2023-01-22T17:34:24.491Z,1.03
2023-01-22T17:37:00.676Z,1.02
2023-01-22T17:39:39.581Z,1.04
2023-01-22T17:42:16.853Z,1.03
2023-01-22T17:44:57.973Z,1.04
2023-01-22T17:47:35.953Z,1.04
2023-01-22T17:50:14.780Z,1.05
2023-01-22T17:52:51.200Z,1.04
2023-01-22T17:55:28.577Z,1.06
2023-01-22T17:58:05.554Z,1.10
2023-01-22T18:00:43.302Z,1.14
2023-01-22T18:03:22.505Z,1.13
2023-01-22T18:06:00.223Z,1.14
2023-01-22T18:08:40.192Z,1.10
2023-01-22T18:11:21.152Z,1.03
2023-01-22T18:13:57.456Z,1.03
2023-01-22T18:16:36.289Z,1.08
2023-01-22T18:19:12.979Z,1.09
2023-01-22T18:21:50.294Z,1.09
2023-01-22T18:24:32.989Z,1.09
2023-01-22T18:27:10.876Z,1.09
2023-01-22T18:29:51.293Z,1.07
2023-01-22T18:32:28.635Z,1.07
2023-01-22T18:35:04.944Z,1.07
2023-01-22T18:37:41.763Z,1.05
2023-01-22T18:40:20.654Z,1.04
2023-01-22T18:42:58.583Z,1.08
2023-01-22T18:45:42.803Z,1.07
2023-01-22T18:48:24.932Z,1.04
2023-01-22T18:51:03.607Z,1.08
2023-01-22T18:53:46.135Z,1.08
2023-01-22T18:56:32.628Z,1.13
2023-01-22T18:59:13.583Z,1.12
2023-01-22T19:01:55.376Z,1.03
2023-01-22T19:04:34.893Z,1.07
2023-01-22T19:07:18.365Z,1.07
2023-01-22T19:10:19.944Z,1.07
2023-01-22T19:13:07.225Z,1.10
2023-01-22T19:15:48.355Z,1.14
2023-01-22T19:18:31.157Z,1.17
2023-01-22T19:21:19.750Z,1.16
2023-01-22T19:24:02.802Z,1.16
2023-01-22T19:26:47.138Z,1.18
2023-01-22T19:29:28.849Z,1.19
2023-01-22T19:32:08.161Z,1.20
2023-01-22T19:34:49.631Z,1.20
2023-01-22T19:37:33.783Z,1.19
2023-01-22T19:40:20.539Z,1.17
2023-01-22T19:43:01.244Z,1.16
2023-01-22T19:45:43.808Z,1.18
2023-01-22T19:48:25.121Z,1.19
2023-01-22T19:51:13.894Z,1.14
2023-01-22T19:53:52.184Z,1.13
2023-01-22T19:56:34.200Z,1.16
2023-01-22T19:59:16.633Z,1.17
2023-01-22T20:01:54.063Z,1.18
2023-01-22T20:04:38.951Z,1.20
2023-01-22T20:07:17.459Z,1.20
2023-01-22T20:09:55.770Z,1.21
2023-01-22T20:12:36.134Z,1.21
2023-01-22T20:15:24.625Z,1.23
2023-01-22T20:18:12.313Z,1.22
2023-01-22T20:21:07.012Z,1.23
2023-01-22T20:23:50.153Z,1.23
2023-01-22T20:26:37.298Z,1.17
2023-01-22T20:29:19.358Z,1.16
2023-01-22T20:32:04.421Z,1.17
2023-01-22T20:34:50.986Z,1.20
2023-01-22T20:37:28.875Z,1.19
2023-01-22T20:40:11.536Z,1.17
2023-01-22T20:42:56.758Z,1.17
2023-01-22T20:45:35.033Z,1.17
2023-01-22T20:48:18.583Z,1.17
2023-01-22T20:51:02.502Z,1.16
2023-01-22T20:53:47.677Z,1.14
2023-01-22T20:56:34.762Z,1.14
2023-01-22T20:59:18.445Z,1.12
2023-01-22T21:02:04.317Z,1.15
2023-01-22T21:04:46.739Z,1.17
2023-01-22T21:07:29.023Z,1.17
2023-01-22T21:10:10.969Z,1.20
2023-01-22T21:12:50.139Z,1.20
2023-01-22T21:15:36.644Z,1.20
2023-01-22T21:18:17.322Z,1.21
2023-01-22T21:21:00.217Z,1.21
2023-01-22T21:23:39.258Z,1.19
2023-01-22T21:26:20.288Z,1.18
2023-01-22T21:29:00.240Z,1.18
2023-01-22T21:31:37.021Z,1.17
2023-01-22T21:34:12.929Z,1.18
2023-01-22T21:36:51.822Z,1.16
2023-01-22T21:39:30.580Z,1.16
2023-01-22T21:42:31.802Z,1.17
2023-01-22T21:45:26.448Z,1.18
2023-01-22T21:48:02.058Z,1.20
2023-01-22T21:50:41.482Z,1.20
2023-01-22T21:53:17.348Z,1.22
2023-01-22T21:55:58.736Z,1.23
2023-01-22T21:58:35.967Z,1.21
2023-01-22T22:01:16.362Z,1.22
2023-01-22T22:03:52.080Z,1.24
2023-01-22T22:06:27.921Z,1.26
2023-01-22T22:09:06.279Z,1.27
2023-01-22T22:11:43.426Z,1.27
2023-01-22T22:14:23.067Z,1.25
2023-01-22T22:16:59.296Z,1.25
2023-01-22T22:19:33.977Z,1.27
2023-01-22T22:22:09.510Z,1.26
2023-01-22T22:24:51.546Z,1.25
2023-01-22T22:27:28.324Z,1.28
2023-01-22T22:30:04.762Z,1.28
2023-01-22T22:32:40.748Z,1.29
2023-01-22T22:35:17.078Z,1.27
2023-01-22T22:37:52.780Z,1.27
2023-01-22T22:40:29.472Z,1.26
2023-01-22T22:43:06.159Z,1.24
2023-01-22T22:45:44.000Z,1.24
2023-01-22T22:48:20.912Z,1.25
2023-01-22T22:50:56.020Z,1.23
2023-01-22T22:53:32.631Z,1.22
2023-01-22T22:56:09.120Z,1.21
2023-01-22T22:58:44.458Z,1.19
2023-01-22T23:01:21.645Z,1.21
2023-01-22T23:03:55.057Z,1.20
2023-01-22T23:06:29.862Z,1.19
2023-01-22T23:09:15.493Z,1.16
2023-01-22T23:11:51.859Z,1.17
2023-01-22T23:14:24.492Z,1.16
2023-01-22T23:16:57.974Z,1.17
2023-01-22T23:19:32.273Z,1.18
2023-01-22T23:22:05.381Z,1.18
2023-01-22T23:24:40.594Z,1.16
2023-01-22T23:27:13.348Z,1.16
2023-01-22T23:29:46.504Z,1.16
2023-01-22T23:32:23.691Z,1.17
2023-01-22T23:34:56.617Z,1.16
2023-01-22T23:37:29.465Z,1.14
2023-01-22T23:40:02.186Z,1.15
2023-01-22T23:42:34.803Z,1.12
2023-01-22T23:45:09.196Z,1.13
2023-01-22T23:47:44.507Z,1.15
2023-01-22T23:50:17.638Z,1.13
2023-01-22T23:52:50.905Z,1.15
2023-01-22T23:55:24.133Z,1.15
2023-01-22T23:57:57.185Z,1.13
